GTI8008 EGNX-ELLX
Flight info
| Callsign | GTI8008 |
|---|---|
| Flight time | 0h 58m |
| Altitude | 39000 |
| Route | SAPCO UY53 DTY UM605 BENSU Q70 BIG UL9 KONAN DCT KOK UL607 REMBA |
| Aircraft | B748/H-SDE3FGHIM1M2RWXY/LB1 |
Departure
| Time | 2026-05-06 17:59 |
|---|---|
| Airport | East Midlands Airport (EGNX) |
Arrival
| Time | 2026-05-06 18:57 |
|---|---|
| Airport | Luxembourg-Findel International Airport (ELLX) |
| Time | Latitude | Longitude | Altitude | Speed | Heading |
|---|---|---|---|---|---|
| 2026-05-06 17:26 | 52.82820 | -1.31566 | 307 ft | 0 kts | 133° |
| 2026-05-06 17:47 | 52.82824 | -1.31573 | 307 ft | 2 kts | 134° |
| 2026-05-06 17:47 | 52.82838 | -1.31596 | 308 ft | 3 kts | 135° |
| 2026-05-06 17:47 | 52.82852 | -1.31620 | 308 ft | 3 kts | 131° |
| 2026-05-06 17:48 | 52.82865 | -1.31644 | 306 ft | 3 kts | 122° |
| 2026-05-06 17:48 | 52.82875 | -1.31672 | 306 ft | 3 kts | 114° |
| 2026-05-06 17:48 | 52.82883 | -1.31701 | 306 ft | 3 kts | 103° |
| 2026-05-06 17:48 | 52.82887 | -1.31732 | 305 ft | 3 kts | 91° |
| 2026-05-06 17:49 | 52.82887 | -1.31765 | 305 ft | 3 kts | 83° |
| 2026-05-06 17:49 | 52.82885 | -1.31798 | 305 ft | 3 kts | 82° |
| 2026-05-06 17:49 | 52.82882 | -1.31825 | 306 ft | 1 kts | 88° |
| 2026-05-06 17:49 | 52.82882 | -1.31828 | 306 ft | 0 kts | 88° |
| 2026-05-06 17:52 | 52.82882 | -1.31826 | 307 ft | 1 kts | 88° |
| 2026-05-06 17:52 | 52.82887 | -1.31780 | 309 ft | 3 kts | 75° |
| 2026-05-06 17:53 | 52.82894 | -1.31755 | 310 ft | 1 kts | 59° |
| 2026-05-06 17:53 | 52.82899 | -1.31746 | 309 ft | 2 kts | 52° |
| 2026-05-06 17:53 | 52.82908 | -1.31733 | 311 ft | 1 kts | 37° |
| 2026-05-06 17:53 | 52.82912 | -1.31731 | 311 ft | 2 kts | 23° |
| 2026-05-06 17:54 | 52.82930 | -1.31729 | 309 ft | 1 kts | 355° |
| 2026-05-06 17:54 | 52.82940 | -1.31741 | 310 ft | 3 kts | 321° |
| 2026-05-06 17:54 | 52.82947 | -1.31778 | 308 ft | 5 kts | 280° |
| 2026-05-06 17:54 | 52.82947 | -1.31876 | 310 ft | 10 kts | 268° |
| 2026-05-06 17:55 | 52.82945 | -1.32020 | 307 ft | 16 kts | 268° |
| 2026-05-06 17:55 | 52.82941 | -1.32244 | 307 ft | 21 kts | 268° |
| 2026-05-06 17:55 | 52.82937 | -1.32477 | 308 ft | 20 kts | 269° |
| 2026-05-06 17:55 | 52.82935 | -1.32707 | 308 ft | 20 kts | 266° |
| 2026-05-06 17:56 | 52.82929 | -1.32935 | 309 ft | 21 kts | 268° |
| 2026-05-06 17:56 | 52.82923 | -1.33205 | 310 ft | 24 kts | 268° |
| 2026-05-06 17:56 | 52.82918 | -1.33471 | 314 ft | 23 kts | 268° |
| 2026-05-06 17:56 | 52.82913 | -1.33757 | 311 ft | 26 kts | 268° |
| 2026-05-06 17:57 | 52.82907 | -1.34082 | 307 ft | 30 kts | 268° |
| 2026-05-06 17:57 | 52.82906 | -1.34414 | 314 ft | 27 kts | 270° |
| 2026-05-06 17:57 | 52.82901 | -1.34731 | 311 ft | 27 kts | 268° |
| 2026-05-06 17:57 | 52.82916 | -1.34910 | 315 ft | 8 kts | 314° |
| 2026-05-06 17:58 | 52.82959 | -1.34938 | 314 ft | 6 kts | 354° |
| 2026-05-06 17:58 | 52.83024 | -1.34936 | 311 ft | 10 kts | 12° |
| 2026-05-06 17:58 | 52.83062 | -1.34874 | 313 ft | 9 kts | 69° |
| 2026-05-06 17:58 | 52.83070 | -1.34622 | 309 ft | 52 kts | 88° |
| 2026-05-06 17:59 | 52.83087 | -1.33575 | 315 ft | 126 kts | 88° |
| 2026-05-06 17:59 | 52.83117 | -1.31814 | 460 ft | 171 kts | 88° |
| 2026-05-06 17:59 | 52.83132 | -1.29821 | 1437 ft | 174 kts | 91° |
| 2026-05-06 17:59 | 52.82992 | -1.27834 | 2327 ft | 177 kts | 94° |
| 2026-05-06 18:00 | 52.82851 | -1.25689 | 2779 ft | 197 kts | 94° |
| 2026-05-06 18:00 | 52.82568 | -1.23388 | 3309 ft | 215 kts | 111° |
| 2026-05-06 18:00 | 52.81617 | -1.21352 | 3744 ft | 234 kts | 134° |
| 2026-05-06 18:00 | 52.80470 | -1.19419 | 4373 ft | 243 kts | 132° |
| 2026-05-06 18:01 | 52.79121 | -1.17644 | 4846 ft | 255 kts | 149° |
| 2026-05-06 18:01 | 52.77417 | -1.16442 | 5064 ft | 274 kts | 165° |
| 2026-05-06 18:01 | 52.75554 | -1.16045 | 5735 ft | 271 kts | 186° |
| 2026-05-06 18:01 | 52.73787 | -1.17083 | 6305 ft | 273 kts | 216° |
| 2026-05-06 18:02 | 52.72289 | -1.19034 | 7223 ft | 273 kts | 221° |
| 2026-05-06 18:02 | 52.70823 | -1.21056 | 8270 ft | 278 kts | 221° |
| 2026-05-06 18:02 | 52.69292 | -1.23067 | 9316 ft | 283 kts | 220° |
| 2026-05-06 18:02 | 52.67727 | -1.25073 | 10277 ft | 290 kts | 220° |
| 2026-05-06 18:03 | 52.66090 | -1.27195 | 10633 ft | 318 kts | 220° |
| 2026-05-06 18:03 | 52.64283 | -1.29552 | 10962 ft | 345 kts | 220° |
| 2026-05-06 18:03 | 52.62331 | -1.32086 | 11493 ft | 362 kts | 219° |
| 2026-05-06 18:03 | 52.60161 | -1.34217 | 12552 ft | 368 kts | 203° |
| 2026-05-06 18:04 | 52.57637 | -1.35233 | 13423 ft | 376 kts | 189° |
| 2026-05-06 18:04 | 52.55010 | -1.35581 | 14260 ft | 383 kts | 179° |
| 2026-05-06 18:04 | 52.52402 | -1.34812 | 15062 ft | 389 kts | 162° |
| 2026-05-06 18:04 | 52.49883 | -1.33114 | 15812 ft | 394 kts | 156° |
| 2026-05-06 18:05 | 52.47388 | -1.31167 | 16606 ft | 398 kts | 156° |
| 2026-05-06 18:05 | 52.44833 | -1.29330 | 17357 ft | 402 kts | 159° |
| 2026-05-06 18:05 | 52.42208 | -1.27655 | 18104 ft | 406 kts | 160° |
| 2026-05-06 18:05 | 52.39569 | -1.25938 | 18777 ft | 410 kts | 159° |
| 2026-05-06 18:06 | 52.36931 | -1.24113 | 19401 ft | 413 kts | 158° |
| 2026-05-06 18:06 | 52.34298 | -1.22296 | 20004 ft | 417 kts | 159° |
| 2026-05-06 18:06 | 52.31602 | -1.20492 | 20612 ft | 420 kts | 159° |
| 2026-05-06 18:06 | 52.28871 | -1.18676 | 21185 ft | 424 kts | 159° |
| 2026-05-06 18:07 | 52.26141 | -1.16838 | 21755 ft | 427 kts | 159° |
| 2026-05-06 18:07 | 52.23380 | -1.14971 | 22310 ft | 430 kts | 159° |
| 2026-05-06 18:07 | 52.20587 | -1.13099 | 22851 ft | 434 kts | 159° |
| 2026-05-06 18:07 | 52.17899 | -1.11412 | 23352 ft | 436 kts | 166° |
| 2026-05-06 18:08 | 52.14936 | -1.10326 | 23798 ft | 438 kts | 170° |
| 2026-05-06 18:08 | 52.11934 | -1.09372 | 24247 ft | 440 kts | 171° |
| 2026-05-06 18:08 | 52.08909 | -1.08416 | 24673 ft | 442 kts | 171° |
| 2026-05-06 18:08 | 52.05879 | -1.07415 | 25094 ft | 444 kts | 170° |
| 2026-05-06 18:09 | 52.02848 | -1.06406 | 25505 ft | 447 kts | 171° |
| 2026-05-06 18:09 | 51.99779 | -1.05408 | 25905 ft | 449 kts | 171° |
| 2026-05-06 18:09 | 51.96709 | -1.04420 | 26314 ft | 451 kts | 171° |
| 2026-05-06 18:09 | 51.93616 | -1.03415 | 26714 ft | 454 kts | 171° |
| 2026-05-06 18:10 | 51.90510 | -1.02401 | 27124 ft | 456 kts | 171° |
| 2026-05-06 18:10 | 51.87427 | -1.01400 | 27530 ft | 458 kts | 171° |
| 2026-05-06 18:10 | 51.84284 | -1.00386 | 27924 ft | 461 kts | 171° |
| 2026-05-06 18:10 | 51.81124 | -0.99366 | 28339 ft | 463 kts | 171° |
| 2026-05-06 18:11 | 51.77946 | -0.98339 | 28740 ft | 466 kts | 171° |
| 2026-05-06 18:11 | 51.74757 | -0.97311 | 29145 ft | 469 kts | 171° |
| 2026-05-06 18:11 | 51.71535 | -0.96275 | 29539 ft | 471 kts | 171° |
| 2026-05-06 18:11 | 51.68352 | -0.95252 | 29936 ft | 474 kts | 171° |
| 2026-05-06 18:12 | 51.65117 | -0.94064 | 30291 ft | 479 kts | 163° |
| 2026-05-06 18:12 | 51.62035 | -0.91940 | 30639 ft | 484 kts | 152° |
| 2026-05-06 18:12 | 51.59243 | -0.88859 | 30977 ft | 490 kts | 141° |
| 2026-05-06 18:12 | 51.57348 | -0.85862 | 31230 ft | 493 kts | 131° |
| 2026-05-06 18:13 | 51.55378 | -0.81398 | 31540 ft | 498 kts | 120° |
| 2026-05-06 18:13 | 51.53913 | -0.76334 | 31841 ft | 502 kts | 114° |
| 2026-05-06 18:13 | 51.52564 | -0.71136 | 32181 ft | 504 kts | 113° |
| 2026-05-06 18:13 | 51.51239 | -0.65907 | 32499 ft | 507 kts | 113° |
| 2026-05-06 18:14 | 51.49895 | -0.60651 | 32836 ft | 509 kts | 113° |
| 2026-05-06 18:14 | 51.48532 | -0.55419 | 33330 ft | 507 kts | 114° |
| 2026-05-06 18:14 | 51.47190 | -0.50271 | 33775 ft | 506 kts | 113° |
| 2026-05-06 18:14 | 51.45818 | -0.44968 | 34202 ft | 505 kts | 113° |
| 2026-05-06 18:15 | 51.44483 | -0.39818 | 34539 ft | 505 kts | 113° |
| 2026-05-06 18:15 | 51.43126 | -0.34623 | 34905 ft | 505 kts | 114° |
| 2026-05-06 18:15 | 51.41762 | -0.29421 | 35274 ft | 505 kts | 114° |
| 2026-05-06 18:15 | 51.40881 | -0.26060 | 35507 ft | 505 kts | 114° |
| 2026-05-06 18:16 | 51.39522 | -0.20871 | 35856 ft | 505 kts | 114° |
| 2026-05-06 18:16 | 51.38156 | -0.15674 | 36220 ft | 505 kts | 114° |
| 2026-05-06 18:16 | 51.36783 | -0.10474 | 36578 ft | 506 kts | 114° |
| 2026-05-06 18:16 | 51.35413 | -0.05294 | 36938 ft | 506 kts | 114° |
| 2026-05-06 18:17 | 51.33525 | 0.05517 | 36999 ft | 511 kts | 97° |
| 2026-05-06 18:17 | 51.32825 | 0.16797 | 36995 ft | 507 kts | 97° |
| 2026-05-06 18:18 | 51.31779 | 0.27960 | 36992 ft | 507 kts | 98° |
| 2026-05-06 18:18 | 51.30901 | 0.39098 | 36968 ft | 507 kts | 97° |
| 2026-05-06 18:19 | 51.29923 | 0.50266 | 36972 ft | 506 kts | 98° |
| 2026-05-06 18:19 | 51.28974 | 0.61401 | 36969 ft | 505 kts | 98° |
| 2026-05-06 18:20 | 51.28010 | 0.72447 | 36964 ft | 505 kts | 98° |
| 2026-05-06 18:20 | 51.27030 | 0.83555 | 36961 ft | 505 kts | 98° |
| 2026-05-06 18:21 | 51.25960 | 0.94646 | 36973 ft | 504 kts | 103° |
| 2026-05-06 18:21 | 51.24330 | 1.05540 | 36981 ft | 504 kts | 103° |
| 2026-05-06 18:22 | 51.22969 | 1.16539 | 36982 ft | 505 kts | 102° |
| 2026-05-06 18:22 | 51.21450 | 1.27479 | 36979 ft | 504 kts | 103° |
| 2026-05-06 18:23 | 51.20006 | 1.38343 | 36974 ft | 504 kts | 102° |
| 2026-05-06 18:23 | 51.18510 | 1.49270 | 36972 ft | 503 kts | 103° |
| 2026-05-06 18:24 | 51.17015 | 1.60189 | 36968 ft | 503 kts | 103° |
| 2026-05-06 18:24 | 51.15522 | 1.70995 | 36966 ft | 503 kts | 103° |
| 2026-05-06 18:25 | 51.14008 | 1.81863 | 36964 ft | 503 kts | 103° |
| 2026-05-06 18:25 | 51.11907 | 1.92467 | 36975 ft | 503 kts | 115° |
| 2026-05-06 18:26 | 51.08855 | 2.02475 | 36976 ft | 503 kts | 115° |
| 2026-05-06 18:26 | 51.06156 | 2.12756 | 36972 ft | 503 kts | 113° |
| 2026-05-06 18:27 | 51.03314 | 2.22848 | 36970 ft | 503 kts | 115° |
| 2026-05-06 18:27 | 51.00508 | 2.33042 | 36969 ft | 503 kts | 114° |
| 2026-05-06 18:28 | 50.97666 | 2.43237 | 36962 ft | 503 kts | 115° |
| 2026-05-06 18:28 | 50.94820 | 2.53403 | 36958 ft | 503 kts | 114° |
| 2026-05-06 18:29 | 50.92013 | 2.63417 | 36956 ft | 503 kts | 115° |
| 2026-05-06 18:29 | 50.89154 | 2.73534 | 36955 ft | 502 kts | 115° |
| 2026-05-06 18:30 | 50.86318 | 2.83564 | 36942 ft | 502 kts | 115° |
| 2026-05-06 18:30 | 50.83449 | 2.93639 | 36937 ft | 501 kts | 115° |
| 2026-05-06 18:31 | 50.80578 | 3.03695 | 36935 ft | 501 kts | 115° |
| 2026-05-06 18:31 | 50.77695 | 3.13741 | 36932 ft | 501 kts | 115° |
| 2026-05-06 18:32 | 50.74813 | 3.23746 | 36930 ft | 500 kts | 115° |
| 2026-05-06 18:32 | 50.71942 | 3.33668 | 36925 ft | 499 kts | 115° |
| 2026-05-06 18:33 | 50.69044 | 3.43644 | 36919 ft | 499 kts | 115° |
| 2026-05-06 18:33 | 50.66138 | 3.53608 | 36916 ft | 499 kts | 115° |
| 2026-05-06 18:34 | 50.63228 | 3.63541 | 36902 ft | 498 kts | 116° |
| 2026-05-06 18:34 | 50.60328 | 3.73398 | 36902 ft | 498 kts | 116° |
| 2026-05-06 18:35 | 50.57875 | 3.81708 | 36899 ft | 499 kts | 116° |
| 2026-05-06 18:35 | 50.54959 | 3.91546 | 36831 ft | 498 kts | 116° |
| 2026-05-06 18:36 | 50.53491 | 3.96486 | 36464 ft | 500 kts | 116° |
| 2026-05-06 18:36 | 50.52014 | 4.01442 | 36184 ft | 499 kts | 116° |
| 2026-05-06 18:36 | 50.50537 | 4.06390 | 35912 ft | 499 kts | 116° |
| 2026-05-06 18:36 | 50.49064 | 4.11316 | 35632 ft | 499 kts | 116° |
| 2026-05-06 18:37 | 50.47584 | 4.16252 | 35355 ft | 498 kts | 116° |
| 2026-05-06 18:37 | 50.46104 | 4.21182 | 35087 ft | 498 kts | 116° |
| 2026-05-06 18:37 | 50.44626 | 4.26091 | 34818 ft | 497 kts | 116° |
| 2026-05-06 18:37 | 50.43148 | 4.30993 | 34552 ft | 497 kts | 116° |
| 2026-05-06 18:38 | 50.41686 | 4.35833 | 34293 ft | 496 kts | 116° |
| 2026-05-06 18:38 | 50.40203 | 4.40730 | 34009 ft | 496 kts | 116° |
| 2026-05-06 18:38 | 50.38721 | 4.45618 | 33694 ft | 495 kts | 116° |
| 2026-05-06 18:38 | 50.37243 | 4.50480 | 33243 ft | 492 kts | 116° |
| 2026-05-06 18:39 | 50.35773 | 4.55306 | 32556 ft | 489 kts | 116° |
| 2026-05-06 18:39 | 50.34307 | 4.60111 | 31881 ft | 487 kts | 116° |
| 2026-05-06 18:39 | 50.32848 | 4.64880 | 31175 ft | 485 kts | 116° |
| 2026-05-06 18:40 | 50.29932 | 4.74388 | 29682 ft | 483 kts | 116° |
| 2026-05-06 18:40 | 50.28484 | 4.79097 | 28953 ft | 478 kts | 116° |
| 2026-05-06 18:40 | 50.27049 | 4.83755 | 28228 ft | 473 kts | 116° |
| 2026-05-06 18:40 | 50.25639 | 4.88321 | 27514 ft | 468 kts | 116° |
| 2026-05-06 18:41 | 50.24226 | 4.92890 | 26795 ft | 464 kts | 116° |
| 2026-05-06 18:41 | 50.22827 | 4.97403 | 26078 ft | 459 kts | 116° |
| 2026-05-06 18:41 | 50.21434 | 5.01891 | 25361 ft | 455 kts | 116° |
| 2026-05-06 18:41 | 50.20056 | 5.06320 | 24652 ft | 452 kts | 116° |
| 2026-05-06 18:42 | 50.18685 | 5.10722 | 23942 ft | 448 kts | 116° |
| 2026-05-06 18:42 | 50.17325 | 5.15079 | 23211 ft | 445 kts | 116° |
| 2026-05-06 18:42 | 50.15976 | 5.19394 | 22480 ft | 441 kts | 116° |
| 2026-05-06 18:42 | 50.14631 | 5.23686 | 21781 ft | 439 kts | 116° |
| 2026-05-06 18:43 | 50.13295 | 5.27944 | 21064 ft | 437 kts | 116° |
| 2026-05-06 18:43 | 50.11959 | 5.32194 | 20354 ft | 434 kts | 116° |
| 2026-05-06 18:43 | 50.10679 | 5.36359 | 19828 ft | 425 kts | 111° |
| 2026-05-06 18:43 | 50.09923 | 5.40737 | 19857 ft | 420 kts | 99° |
| 2026-05-06 18:44 | 50.09369 | 5.45253 | 19152 ft | 426 kts | 109° |
| 2026-05-06 18:44 | 50.08176 | 5.49434 | 18479 ft | 419 kts | 120° |
| 2026-05-06 18:44 | 50.06682 | 5.53281 | 17713 ft | 409 kts | 123° |
| 2026-05-06 18:44 | 50.05202 | 5.56879 | 17051 ft | 380 kts | 122° |
| 2026-05-06 18:45 | 50.03958 | 5.60353 | 16428 ft | 356 kts | 116° |
| 2026-05-06 18:45 | 50.02914 | 5.63729 | 15828 ft | 336 kts | 116° |
| 2026-05-06 18:45 | 50.01891 | 5.66883 | 15280 ft | 318 kts | 118° |
| 2026-05-06 18:45 | 50.00864 | 5.69833 | 14733 ft | 303 kts | 118° |
| 2026-05-06 18:46 | 49.99875 | 5.72696 | 14238 ft | 300 kts | 117° |
| 2026-05-06 18:46 | 49.98915 | 5.75546 | 13711 ft | 302 kts | 116° |
| 2026-05-06 18:46 | 49.97940 | 5.78445 | 13140 ft | 303 kts | 117° |
| 2026-05-06 18:46 | 49.96953 | 5.81350 | 12588 ft | 303 kts | 117° |
| 2026-05-06 18:47 | 49.95982 | 5.84195 | 12028 ft | 291 kts | 117° |
| 2026-05-06 18:47 | 49.95149 | 5.86636 | 11545 ft | 279 kts | 117° |
| 2026-05-06 18:47 | 49.94258 | 5.89254 | 11047 ft | 271 kts | 117° |
| 2026-05-06 18:47 | 49.93376 | 5.91840 | 10757 ft | 272 kts | 117° |
| 2026-05-06 18:48 | 49.92479 | 5.94464 | 10712 ft | 276 kts | 117° |
| 2026-05-06 18:48 | 49.91598 | 5.97040 | 10655 ft | 267 kts | 117° |
| 2026-05-06 18:48 | 49.90708 | 5.99641 | 10575 ft | 277 kts | 117° |
| 2026-05-06 18:48 | 49.89797 | 6.02302 | 10210 ft | 279 kts | 117° |
| 2026-05-06 18:49 | 49.88887 | 6.04954 | 9845 ft | 276 kts | 118° |
| 2026-05-06 18:49 | 49.87988 | 6.07571 | 9434 ft | 275 kts | 117° |
| 2026-05-06 18:49 | 49.87067 | 6.10250 | 8978 ft | 274 kts | 117° |
| 2026-05-06 18:49 | 49.86193 | 6.12806 | 8546 ft | 273 kts | 115° |
| 2026-05-06 18:50 | 49.85460 | 6.15512 | 8091 ft | 273 kts | 112° |
| 2026-05-06 18:50 | 49.84671 | 6.18199 | 7596 ft | 275 kts | 114° |
| 2026-05-06 18:50 | 49.83882 | 6.20889 | 7086 ft | 271 kts | 112° |
| 2026-05-06 18:50 | 49.83127 | 6.23574 | 6602 ft | 272 kts | 112° |
| 2026-05-06 18:51 | 49.82427 | 6.26067 | 6159 ft | 259 kts | 112° |
| 2026-05-06 18:51 | 49.81734 | 6.28507 | 5661 ft | 253 kts | 112° |
| 2026-05-06 18:51 | 49.81023 | 6.31001 | 5147 ft | 252 kts | 111° |
| 2026-05-06 18:51 | 49.80324 | 6.33457 | 4751 ft | 248 kts | 111° |
| 2026-05-06 18:52 | 49.79631 | 6.35891 | 4465 ft | 241 kts | 111° |
| 2026-05-06 18:52 | 49.78939 | 6.38147 | 4206 ft | 224 kts | 121° |
| 2026-05-06 18:52 | 49.77803 | 6.39726 | 3923 ft | 220 kts | 149° |
| 2026-05-06 18:52 | 49.76486 | 6.40889 | 3821 ft | 219 kts | 150° |
| 2026-05-06 18:53 | 49.75169 | 6.42020 | 3716 ft | 219 kts | 150° |
| 2026-05-06 18:53 | 49.73839 | 6.43180 | 3645 ft | 219 kts | 151° |
| 2026-05-06 18:53 | 49.72386 | 6.43840 | 3554 ft | 219 kts | 183° |
| 2026-05-06 18:53 | 49.70959 | 6.43145 | 3475 ft | 214 kts | 218° |
| 2026-05-06 18:54 | 49.70093 | 6.41449 | 3388 ft | 195 kts | 249° |
| 2026-05-06 18:54 | 49.69459 | 6.39596 | 3291 ft | 195 kts | 244° |
| 2026-05-06 18:54 | 49.68817 | 6.37795 | 3223 ft | 189 kts | 243° |
| 2026-05-06 18:54 | 49.68162 | 6.36022 | 3148 ft | 190 kts | 243° |
| 2026-05-06 18:55 | 49.67505 | 6.34249 | 3078 ft | 190 kts | 243° |
| 2026-05-06 18:55 | 49.66841 | 6.32448 | 2652 ft | 192 kts | 244° |
| 2026-05-06 18:55 | 49.66200 | 6.30703 | 2311 ft | 179 kts | 243° |
| 2026-05-06 18:55 | 49.65598 | 6.29127 | 2049 ft | 164 kts | 243° |
| 2026-05-06 18:56 | 49.65051 | 6.27622 | 1844 ft | 161 kts | 244° |
| 2026-05-06 18:56 | 49.64499 | 6.26153 | 1683 ft | 159 kts | 243° |
| 2026-05-06 18:56 | 49.63942 | 6.24669 | 1411 ft | 159 kts | 243° |
| 2026-05-06 18:56 | 49.63400 | 6.23194 | 1262 ft | 156 kts | 244° |
| 2026-05-06 18:57 | 49.62942 | 6.21943 | 1231 ft | 102 kts | 240° |
| 2026-05-06 18:57 | 49.62687 | 6.21258 | 1258 ft | 57 kts | 240° |
| 2026-05-06 18:57 | 49.62511 | 6.20785 | 1258 ft | 34 kts | 240° |
| 2026-05-06 18:57 | 49.62471 | 6.20674 | 1261 ft | 7 kts | 241° |
| 2026-05-06 18:58 | 49.62456 | 6.20602 | 1253 ft | 6 kts | 268° |
| 2026-05-06 18:58 | 49.62470 | 6.20549 | 1253 ft | 5 kts | 306° |
| 2026-05-06 18:58 | 49.62494 | 6.20519 | 1258 ft | 6 kts | 325° |
| 2026-05-06 18:58 | 49.62524 | 6.20491 | 1256 ft | 0 kts | 330° |
| 2026-05-06 18:59 | 49.62526 | 6.20489 | 1256 ft | 2 kts | 330° |
| 2026-05-06 18:59 | 49.62547 | 6.20474 | 1258 ft | 3 kts | 339° |
| 2026-05-06 18:59 | 49.62570 | 6.20471 | 1256 ft | 4 kts | 0° |
| 2026-05-06 19:00 | 49.62597 | 6.20484 | 1254 ft | 5 kts | 25° |
| 2026-05-06 19:00 | 49.62632 | 6.20529 | 1260 ft | 9 kts | 43° |
| 2026-05-06 19:00 | 49.62693 | 6.20612 | 1254 ft | 13 kts | 38° |
| 2026-05-06 19:00 | 49.62739 | 6.20667 | 1254 ft | 13 kts | 39° |
| 2026-05-06 19:01 | 49.62821 | 6.20822 | 1260 ft | 15 kts | 61° |
| 2026-05-06 19:01 | 49.62867 | 6.20963 | 1260 ft | 15 kts | 63° |
| 2026-05-06 19:01 | 49.62914 | 6.21111 | 1258 ft | 17 kts | 64° |
| 2026-05-06 19:01 | 49.62970 | 6.21288 | 1253 ft | 19 kts | 64° |
| 2026-05-06 19:02 | 49.63027 | 6.21478 | 1249 ft | 21 kts | 64° |
| 2026-05-06 19:02 | 49.63090 | 6.21676 | 1248 ft | 20 kts | 64° |
| 2026-05-06 19:02 | 49.63148 | 6.21870 | 1249 ft | 20 kts | 65° |
| 2026-05-06 19:02 | 49.63205 | 6.22054 | 1242 ft | 19 kts | 64° |
| 2026-05-06 19:03 | 49.63264 | 6.22246 | 1230 ft | 21 kts | 64° |
| 2026-05-06 19:03 | 49.63328 | 6.22447 | 1226 ft | 22 kts | 63° |
| 2026-05-06 19:03 | 49.63404 | 6.22660 | 1224 ft | 22 kts | 60° |
| 2026-05-06 19:03 | 49.63471 | 6.22824 | 1224 ft | 10 kts | 44° |
| 2026-05-06 19:04 | 49.63513 | 6.22838 | 1225 ft | 5 kts | 354° |
| 2026-05-06 19:04 | 49.63555 | 6.22815 | 1226 ft | 8 kts | 335° |
| 2026-05-06 19:04 | 49.63605 | 6.22773 | 1229 ft | 7 kts | 331° |
| 2026-05-06 19:04 | 49.63653 | 6.22732 | 1230 ft | 8 kts | 331° |
| 2026-05-06 19:05 | 49.63686 | 6.22697 | 1230 ft | 3 kts | 308° |
| 2026-05-06 19:05 | 49.63688 | 6.22684 | 1230 ft | 1 kts | 288° |
| 2026-05-06 19:05 | 49.63688 | 6.22659 | 1230 ft | 4 kts | 268° |
| 2026-05-06 19:05 | 49.63682 | 6.22630 | 1230 ft | 2 kts | 247° |
| 2026-05-06 19:06 | 49.63673 | 6.22607 | 1229 ft | 2 kts | 239° |
| 2026-05-06 19:06 | 49.63666 | 6.22589 | 1229 ft | 2 kts | 239° |
| 2026-05-06 19:06 | 49.63662 | 6.22577 | 1229 ft | 0 kts | 240° |
| 2026-05-06 19:06 | 49.63661 | 6.22576 | 1229 ft | 0 kts | 240° |
| 2026-05-06 19:07 | 49.63660 | 6.22571 | 1229 ft | 1 kts | 240° |